sensor_id;sensor_type;location;lat;lon;timestamp;P1;durP1;ratioP1;P2;durP2;ratioP2
15112;SDS011;7657;50.140;7.076;2023-04-08T00:00:49;14.07;;;9.73;;
15112;SDS011;7657;50.140;7.076;2023-04-08T00:03:16;13.93;;;9.40;;
15112;SDS011;7657;50.140;7.076;2023-04-08T00:05:44;16.80;;;10.43;;
15112;SDS011;7657;50.140;7.076;2023-04-08T00:08:11;14.47;;;9.50;;
15112;SDS011;7657;50.140;7.076;2023-04-08T00:10:38;15.33;;;9.67;;
15112;SDS011;7657;50.140;7.076;2023-04-08T00:13:05;14.48;;;9.90;;
15112;SDS011;7657;50.140;7.076;2023-04-08T00:15:32;15.10;;;9.30;;
15112;SDS011;7657;50.140;7.076;2023-04-08T00:17:59;15.10;;;9.30;;
15112;SDS011;7657;50.140;7.076;2023-04-08T00:20:26;15.53;;;9.97;;
15112;SDS011;7657;50.140;7.076;2023-04-08T00:22:54;14.43;;;9.53;;
15112;SDS011;7657;50.140;7.076;2023-04-08T00:25:21;17.77;;;10.10;;
15112;SDS011;7657;50.140;7.076;2023-04-08T00:27:48;13.53;;;8.63;;
15112;SDS011;7657;50.140;7.076;2023-04-08T00:30:15;15.67;;;9.23;;
15112;SDS011;7657;50.140;7.076;2023-04-08T00:32:42;14.67;;;9.57;;
15112;SDS011;7657;50.140;7.076;2023-04-08T00:35:09;13.90;;;9.40;;
15112;SDS011;7657;50.140;7.076;2023-04-08T00:37:36;16.53;;;10.50;;
15112;SDS011;7657;50.140;7.076;2023-04-08T00:40:05;17.50;;;10.03;;
15112;SDS011;7657;50.140;7.076;2023-04-08T00:42:33;14.23;;;9.80;;
15112;SDS011;7657;50.140;7.076;2023-04-08T00:45:00;15.33;;;9.27;;
15112;SDS011;7657;50.140;7.076;2023-04-08T00:47:26;16.20;;;9.80;;
15112;SDS011;7657;50.140;7.076;2023-04-08T00:49:53;15.10;;;10.10;;
15112;SDS011;7657;50.140;7.076;2023-04-08T00:52:20;14.93;;;9.87;;
15112;SDS011;7657;50.140;7.076;2023-04-08T00:54:47;15.53;;;9.87;;
15112;SDS011;7657;50.140;7.076;2023-04-08T00:57:16;14.87;;;9.67;;
15112;SDS011;7657;50.140;7.076;2023-04-08T00:59:42;16.83;;;9.53;;
15112;SDS011;7657;50.140;7.076;2023-04-08T01:02:11;15.53;;;9.60;;
15112;SDS011;7657;50.140;7.076;2023-04-08T01:04:47;15.53;;;9.90;;
15112;SDS011;7657;50.140;7.076;2023-04-08T01:07:21;13.30;;;8.87;;
15112;SDS011;7657;50.140;7.076;2023-04-08T01:09:53;17.23;;;9.23;;
15112;SDS011;7657;50.140;7.076;2023-04-08T01:12:25;15.87;;;9.07;;
15112;SDS011;7657;50.140;7.076;2023-04-08T01:14:54;16.07;;;9.00;;
15112;SDS011;7657;50.140;7.076;2023-04-08T01:17:26;15.83;;;8.77;;
15112;SDS011;7657;50.140;7.076;2023-04-08T01:19:55;14.63;;;8.87;;
15112;SDS011;7657;50.140;7.076;2023-04-08T01:22:28;14.43;;;8.63;;
15112;SDS011;7657;50.140;7.076;2023-04-08T01:25:04;16.53;;;8.43;;
15112;SDS011;7657;50.140;7.076;2023-04-08T01:27:34;13.73;;;8.33;;
15112;SDS011;7657;50.140;7.076;2023-04-08T01:30:03;10.63;;;7.37;;
15112;SDS011;7657;50.140;7.076;2023-04-08T01:32:33;14.93;;;9.03;;
15112;SDS011;7657;50.140;7.076;2023-04-08T01:35:01;12.60;;;8.23;;
15112;SDS011;7657;50.140;7.076;2023-04-08T01:37:29;12.87;;;7.87;;
15112;SDS011;7657;50.140;7.076;2023-04-08T01:39:58;12.50;;;7.87;;
15112;SDS011;7657;50.140;7.076;2023-04-08T01:42:26;14.67;;;8.17;;
15112;SDS011;7657;50.140;7.076;2023-04-08T01:44:56;12.83;;;8.27;;
15112;SDS011;7657;50.140;7.076;2023-04-08T01:47:25;12.60;;;8.43;;
15112;SDS011;7657;50.140;7.076;2023-04-08T01:49:54;14.30;;;7.67;;
15112;SDS011;7657;50.140;7.076;2023-04-08T01:52:24;15.90;;;8.23;;
15112;SDS011;7657;50.140;7.076;2023-04-08T01:54:52;12.13;;;7.57;;
15112;SDS011;7657;50.140;7.076;2023-04-08T01:57:21;11.10;;;7.70;;
15112;SDS011;7657;50.140;7.076;2023-04-08T01:59:50;12.87;;;8.83;;
15112;SDS011;7657;50.140;7.076;2023-04-08T02:02:20;10.90;;;7.97;;
15112;SDS011;7657;50.140;7.076;2023-04-08T02:04:49;14.83;;;7.93;;
15112;SDS011;7657;50.140;7.076;2023-04-08T02:07:16;14.23;;;8.83;;
15112;SDS011;7657;50.140;7.076;2023-04-08T02:09:43;12.90;;;8.63;;
15112;SDS011;7657;50.140;7.076;2023-04-08T02:12:10;12.80;;;8.37;;
15112;SDS011;7657;50.140;7.076;2023-04-08T02:14:37;16.37;;;8.93;;
15112;SDS011;7657;50.140;7.076;2023-04-08T02:17:05;13.53;;;8.60;;
15112;SDS011;7657;50.140;7.076;2023-04-08T02:19:38;13.88;;;8.98;;
15112;SDS011;7657;50.140;7.076;2023-04-08T02:22:16;15.70;;;9.27;;
15112;SDS011;7657;50.140;7.076;2023-04-08T02:24:48;15.33;;;9.50;;
15112;SDS011;7657;50.140;7.076;2023-04-08T02:27:16;16.43;;;10.00;;
15112;SDS011;7657;50.140;7.076;2023-04-08T02:29:43;16.10;;;9.80;;
15112;SDS011;7657;50.140;7.076;2023-04-08T02:32:12;15.30;;;9.87;;
15112;SDS011;7657;50.140;7.076;2023-04-08T02:34:41;15.83;;;9.73;;
15112;SDS011;7657;50.140;7.076;2023-04-08T02:37:09;17.67;;;10.03;;
15112;SDS011;7657;50.140;7.076;2023-04-08T02:39:36;16.07;;;9.37;;
15112;SDS011;7657;50.140;7.076;2023-04-08T02:42:03;15.60;;;10.47;;
15112;SDS011;7657;50.140;7.076;2023-04-08T02:44:30;13.93;;;9.77;;
15112;SDS011;7657;50.140;7.076;2023-04-08T02:46:57;18.03;;;10.50;;
15112;SDS011;7657;50.140;7.076;2023-04-08T02:49:24;15.47;;;10.00;;
15112;SDS011;7657;50.140;7.076;2023-04-08T02:51:52;16.83;;;10.63;;
15112;SDS011;7657;50.140;7.076;2023-04-08T02:54:19;17.23;;;10.13;;
15112;SDS011;7657;50.140;7.076;2023-04-08T02:56:46;17.07;;;10.53;;
15112;SDS011;7657;50.140;7.076;2023-04-08T02:59:13;14.83;;;10.23;;
15112;SDS011;7657;50.140;7.076;2023-04-08T03:01:39;15.20;;;10.40;;
15112;SDS011;7657;50.140;7.076;2023-04-08T03:04:06;15.47;;;9.77;;
15112;SDS011;7657;50.140;7.076;2023-04-08T03:06:33;14.17;;;9.87;;
15112;SDS011;7657;50.140;7.076;2023-04-08T03:09:01;16.47;;;9.93;;
15112;SDS011;7657;50.140;7.076;2023-04-08T03:11:29;15.20;;;9.80;;
15112;SDS011;7657;50.140;7.076;2023-04-08T03:13:56;16.93;;;10.37;;
15112;SDS011;7657;50.140;7.076;2023-04-08T03:16:23;20.43;;;11.40;;
15112;SDS011;7657;50.140;7.076;2023-04-08T03:18:50;17.53;;;10.67;;
15112;SDS011;7657;50.140;7.076;2023-04-08T03:21:17;14.00;;;9.70;;
15112;SDS011;7657;50.140;7.076;2023-04-08T03:23:45;20.03;;;10.87;;
15112;SDS011;7657;50.140;7.076;2023-04-08T03:26:13;18.87;;;10.00;;
15112;SDS011;7657;50.140;7.076;2023-04-08T03:28:40;17.33;;;10.73;;
15112;SDS011;7657;50.140;7.076;2023-04-08T03:31:07;15.33;;;9.83;;
15112;SDS011;7657;50.140;7.076;2023-04-08T03:33:33;16.27;;;9.77;;
15112;SDS011;7657;50.140;7.076;2023-04-08T03:36:00;16.50;;;10.77;;
15112;SDS011;7657;50.140;7.076;2023-04-08T03:38:27;17.53;;;10.60;;
15112;SDS011;7657;50.140;7.076;2023-04-08T03:40:54;19.03;;;10.30;;
15112;SDS011;7657;50.140;7.076;2023-04-08T03:43:22;18.00;;;10.70;;
15112;SDS011;7657;50.140;7.076;2023-04-08T03:45:50;17.20;;;10.30;;
15112;SDS011;7657;50.140;7.076;2023-04-08T03:48:17;16.67;;;10.87;;
15112;SDS011;7657;50.140;7.076;2023-04-08T03:50:43;17.37;;;10.10;;
15112;SDS011;7657;50.140;7.076;2023-04-08T03:53:10;15.37;;;10.87;;
15112;SDS011;7657;50.140;7.076;2023-04-08T03:55:37;17.67;;;10.33;;
15112;SDS011;7657;50.140;7.076;2023-04-08T03:58:04;18.27;;;11.00;;
15112;SDS011;7657;50.140;7.076;2023-04-08T04:00:32;17.67;;;10.73;;
15112;SDS011;7657;50.140;7.076;2023-04-08T04:03:00;18.17;;;11.10;;
15112;SDS011;7657;50.140;7.076;2023-04-08T04:05:27;17.23;;;10.43;;
15112;SDS011;7657;50.140;7.076;2023-04-08T04:07:54;19.10;;;10.73;;
15112;SDS011;7657;50.140;7.076;2023-04-08T04:10:22;18.27;;;10.33;;
15112;SDS011;7657;50.140;7.076;2023-04-08T04:12:49;16.97;;;10.80;;
15112;SDS011;7657;50.140;7.076;2023-04-08T04:15:16;15.13;;;9.67;;
15112;SDS011;7657;50.140;7.076;2023-04-08T04:17:45;16.80;;;9.70;;
15112;SDS011;7657;50.140;7.076;2023-04-08T04:20:14;17.13;;;10.40;;
15112;SDS011;7657;50.140;7.076;2023-04-08T04:22:41;15.03;;;10.33;;
15112;SDS011;7657;50.140;7.076;2023-04-08T04:25:08;16.77;;;10.27;;
15112;SDS011;7657;50.140;7.076;2023-04-08T04:27:35;15.18;;;9.38;;
15112;SDS011;7657;50.140;7.076;2023-04-08T04:30:02;16.37;;;9.43;;
15112;SDS011;7657;50.140;7.076;2023-04-08T04:32:31;15.75;;;10.65;;
15112;SDS011;7657;50.140;7.076;2023-04-08T04:34:59;17.70;;;9.73;;
15112;SDS011;7657;50.140;7.076;2023-04-08T04:37:26;15.88;;;10.40;;
15112;SDS011;7657;50.140;7.076;2023-04-08T04:39:53;16.67;;;10.60;;
15112;SDS011;7657;50.140;7.076;2023-04-08T04:42:20;15.57;;;10.07;;
15112;SDS011;7657;50.140;7.076;2023-04-08T04:44:47;16.55;;;9.98;;
15112;SDS011;7657;50.140;7.076;2023-04-08T04:47:14;16.90;;;10.77;;
15112;SDS011;7657;50.140;7.076;2023-04-08T04:49:41;18.07;;;10.70;;
15112;SDS011;7657;50.140;7.076;2023-04-08T04:52:11;16.27;;;9.73;;
15112;SDS011;7657;50.140;7.076;2023-04-08T04:54:37;17.73;;;11.07;;
15112;SDS011;7657;50.140;7.076;2023-04-08T04:57:04;18.77;;;10.77;;
15112;SDS011;7657;50.140;7.076;2023-04-08T04:59:31;17.20;;;11.13;;
15112;SDS011;7657;50.140;7.076;2023-04-08T05:01:58;16.23;;;10.27;;
15112;SDS011;7657;50.140;7.076;2023-04-08T05:04:25;18.37;;;11.53;;
15112;SDS011;7657;50.140;7.076;2023-04-08T05:06:52;16.67;;;10.87;;
15112;SDS011;7657;50.140;7.076;2023-04-08T05:09:20;14.97;;;10.40;;
15112;SDS011;7657;50.140;7.076;2023-04-08T05:11:47;14.43;;;9.67;;
15112;SDS011;7657;50.140;7.076;2023-04-08T05:14:14;16.17;;;10.30;;
15112;SDS011;7657;50.140;7.076;2023-04-08T05:16:41;14.18;;;10.30;;
15112;SDS011;7657;50.140;7.076;2023-04-08T05:19:08;15.33;;;10.27;;
15112;SDS011;7657;50.140;7.076;2023-04-08T05:21:35;17.97;;;11.23;;
15112;SDS011;7657;50.140;7.076;2023-04-08T05:24:02;16.67;;;10.70;;
15112;SDS011;7657;50.140;7.076;2023-04-08T05:26:31;16.90;;;10.07;;
15112;SDS011;7657;50.140;7.076;2023-04-08T05:28:57;14.77;;;10.10;;
15112;SDS011;7657;50.140;7.076;2023-04-08T05:31:24;16.60;;;9.80;;
15112;SDS011;7657;50.140;7.076;2023-04-08T05:33:51;15.18;;;9.77;;
15112;SDS011;7657;50.140;7.076;2023-04-08T05:36:18;16.05;;;10.18;;
15112;SDS011;7657;50.140;7.076;2023-04-08T05:38:45;13.73;;;9.50;;
15112;SDS011;7657;50.140;7.076;2023-04-08T05:41:12;17.50;;;10.30;;
15112;SDS011;7657;50.140;7.076;2023-04-08T05:43:41;15.23;;;8.98;;
15112;SDS011;7657;50.140;7.076;2023-04-08T05:46:08;20.50;;;10.23;;
15112;SDS011;7657;50.140;7.076;2023-04-08T05:48:35;14.82;;;10.10;;
15112;SDS011;7657;50.140;7.076;2023-04-08T05:51:02;14.93;;;9.73;;
15112;SDS011;7657;50.140;7.076;2023-04-08T05:53:30;16.70;;;10.18;;
15112;SDS011;7657;50.140;7.076;2023-04-08T05:55:56;16.98;;;11.55;;
15112;SDS011;7657;50.140;7.076;2023-04-08T05:58:23;20.13;;;11.48;;
15112;SDS011;7657;50.140;7.076;2023-04-08T06:00:51;17.87;;;10.30;;
15112;SDS011;7657;50.140;7.076;2023-04-08T06:03:19;16.55;;;9.93;;
15112;SDS011;7657;50.140;7.076;2023-04-08T06:05:46;15.32;;;9.57;;
15112;SDS011;7657;50.140;7.076;2023-04-08T06:08:13;14.60;;;9.17;;
15112;SDS011;7657;50.140;7.076;2023-04-08T06:10:42;14.10;;;8.60;;
15112;SDS011;7657;50.140;7.076;2023-04-08T06:13:14;13.27;;;9.30;;
15112;SDS011;7657;50.140;7.076;2023-04-08T06:15:41;11.33;;;7.83;;
15112;SDS011;7657;50.140;7.076;2023-04-08T06:18:09;11.63;;;7.67;;
15112;SDS011;7657;50.140;7.076;2023-04-08T06:20:36;12.47;;;7.80;;
15112;SDS011;7657;50.140;7.076;2023-04-08T06:23:03;11.73;;;8.10;;
15112;SDS011;7657;50.140;7.076;2023-04-08T06:25:30;12.20;;;8.50;;
15112;SDS011;7657;50.140;7.076;2023-04-08T06:27:57;13.37;;;8.40;;
15112;SDS011;7657;50.140;7.076;2023-04-08T06:30:24;14.40;;;8.97;;
15112;SDS011;7657;50.140;7.076;2023-04-08T06:32:51;14.60;;;9.97;;
15112;SDS011;7657;50.140;7.076;2023-04-08T06:35:19;11.83;;;8.93;;
15112;SDS011;7657;50.140;7.076;2023-04-08T06:37:46;12.43;;;9.00;;
15112;SDS011;7657;50.140;7.076;2023-04-08T06:40:13;12.93;;;8.33;;
15112;SDS011;7657;50.140;7.076;2023-04-08T06:42:40;14.30;;;10.27;;
15112;SDS011;7657;50.140;7.076;2023-04-08T06:45:09;25.10;;;15.23;;
15112;SDS011;7657;50.140;7.076;2023-04-08T06:47:36;51.93;;;36.63;;
15112;SDS011;7657;50.140;7.076;2023-04-08T06:50:03;18.20;;;13.50;;
15112;SDS011;7657;50.140;7.076;2023-04-08T06:52:32;22.77;;;16.57;;
15112;SDS011;7657;50.140;7.076;2023-04-08T06:54:59;16.37;;;12.13;;
15112;SDS011;7657;50.140;7.076;2023-04-08T06:57:26;15.50;;;11.77;;
15112;SDS011;7657;50.140;7.076;2023-04-08T06:59:53;15.60;;;10.60;;
15112;SDS011;7657;50.140;7.076;2023-04-08T07:02:20;12.20;;;9.60;;
15112;SDS011;7657;50.140;7.076;2023-04-08T07:04:47;13.60;;;8.90;;
15112;SDS011;7657;50.140;7.076;2023-04-08T07:07:14;13.27;;;9.20;;
15112;SDS011;7657;50.140;7.076;2023-04-08T07:09:42;13.30;;;8.57;;
15112;SDS011;7657;50.140;7.076;2023-04-08T07:12:10;12.47;;;8.47;;
15112;SDS011;7657;50.140;7.076;2023-04-08T07:14:37;12.30;;;9.00;;
15112;SDS011;7657;50.140;7.076;2023-04-08T07:17:04;18.10;;;11.63;;
15112;SDS011;7657;50.140;7.076;2023-04-08T07:19:32;14.30;;;10.27;;
15112;SDS011;7657;50.140;7.076;2023-04-08T07:22:00;17.97;;;14.67;;
15112;SDS011;7657;50.140;7.076;2023-04-08T07:24:27;12.93;;;9.70;;
15112;SDS011;7657;50.140;7.076;2023-04-08T07:26:55;14.82;;;9.75;;
15112;SDS011;7657;50.140;7.076;2023-04-08T07:29:22;17.60;;;12.47;;
15112;SDS011;7657;50.140;7.076;2023-04-08T07:31:49;19.13;;;14.10;;
15112;SDS011;7657;50.140;7.076;2023-04-08T07:34:16;16.23;;;11.63;;
15112;SDS011;7657;50.140;7.076;2023-04-08T07:36:43;20.88;;;15.63;;
15112;SDS011;7657;50.140;7.076;2023-04-08T07:39:10;19.50;;;14.07;;
15112;SDS011;7657;50.140;7.076;2023-04-08T07:41:37;13.63;;;9.93;;
15112;SDS011;7657;50.140;7.076;2023-04-08T07:44:05;18.03;;;13.60;;
15112;SDS011;7657;50.140;7.076;2023-04-08T07:46:35;16.47;;;12.20;;
15112;SDS011;7657;50.140;7.076;2023-04-08T07:49:02;14.82;;;10.93;;
15112;SDS011;7657;50.140;7.076;2023-04-08T07:51:29;16.95;;;11.73;;
15112;SDS011;7657;50.140;7.076;2023-04-08T07:53:56;13.32;;;10.20;;
15112;SDS011;7657;50.140;7.076;2023-04-08T07:56:23;13.57;;;9.93;;
15112;SDS011;7657;50.140;7.076;2023-04-08T07:58:50;15.82;;;11.10;;
15112;SDS011;7657;50.140;7.076;2023-04-08T08:01:20;13.88;;;10.52;;
15112;SDS011;7657;50.140;7.076;2023-04-08T08:03:48;18.92;;;13.57;;
15112;SDS011;7657;50.140;7.076;2023-04-08T08:06:15;14.43;;;10.43;;
15112;SDS011;7657;50.140;7.076;2023-04-08T08:08:42;14.13;;;10.52;;
15112;SDS011;7657;50.140;7.076;2023-04-08T08:11:09;14.77;;;10.50;;
15112;SDS011;7657;50.140;7.076;2023-04-08T08:13:36;13.93;;;10.70;;
15112;SDS011;7657;50.140;7.076;2023-04-08T08:16:03;14.77;;;10.77;;
15112;SDS011;7657;50.140;7.076;2023-04-08T08:18:36;13.63;;;9.85;;
15112;SDS011;7657;50.140;7.076;2023-04-08T08:21:04;13.75;;;10.52;;
15112;SDS011;7657;50.140;7.076;2023-04-08T08:23:31;15.13;;;11.20;;
15112;SDS011;7657;50.140;7.076;2023-04-08T08:25:58;15.60;;;11.43;;
15112;SDS011;7657;50.140;7.076;2023-04-08T08:28:26;15.73;;;10.40;;
15112;SDS011;7657;50.140;7.076;2023-04-08T08:30:53;15.82;;;11.15;;
15112;SDS011;7657;50.140;7.076;2023-04-08T08:33:20;15.32;;;10.60;;
15112;SDS011;7657;50.140;7.076;2023-04-08T08:35:48;15.63;;;10.40;;
15112;SDS011;7657;50.140;7.076;2023-04-08T08:38:15;31.75;;;19.48;;
15112;SDS011;7657;50.140;7.076;2023-04-08T08:40:42;17.75;;;13.32;;
15112;SDS011;7657;50.140;7.076;2023-04-08T08:43:10;13.40;;;10.07;;
15112;SDS011;7657;50.140;7.076;2023-04-08T08:45:38;13.77;;;9.98;;
15112;SDS011;7657;50.140;7.076;2023-04-08T08:48:05;14.02;;;10.52;;
15112;SDS011;7657;50.140;7.076;2023-04-08T08:50:32;13.20;;;10.55;;
15112;SDS011;7657;50.140;7.076;2023-04-08T08:53:01;14.00;;;10.15;;
15112;SDS011;7657;50.140;7.076;2023-04-08T08:55:29;13.15;;;10.77;;
15112;SDS011;7657;50.140;7.076;2023-04-08T08:57:57;14.15;;;10.55;;
15112;SDS011;7657;50.140;7.076;2023-04-08T09:00:31;14.38;;;10.82;;
15112;SDS011;7657;50.140;7.076;2023-04-08T09:03:14;14.05;;;10.95;;
15112;SDS011;7657;50.140;7.076;2023-04-08T09:05:49;14.02;;;9.43;;
15112;SDS011;7657;50.140;7.076;2023-04-08T09:08:28;13.88;;;10.30;;
15112;SDS011;7657;50.140;7.076;2023-04-08T09:11:09;14.07;;;10.23;;
15112;SDS011;7657;50.140;7.076;2023-04-08T09:13:37;15.38;;;11.30;;
15112;SDS011;7657;50.140;7.076;2023-04-08T09:16:05;14.68;;;10.05;;
15112;SDS011;7657;50.140;7.076;2023-04-08T09:18:33;15.25;;;11.98;;
15112;SDS011;7657;50.140;7.076;2023-04-08T09:21:01;14.90;;;11.32;;
15112;SDS011;7657;50.140;7.076;2023-04-08T09:26:15;16.65;;;12.85;;
15112;SDS011;7657;50.140;7.076;2023-04-08T09:28:56;14.88;;;11.00;;
15112;SDS011;7657;50.140;7.076;2023-04-08T09:31:24;15.30;;;11.50;;
15112;SDS011;7657;50.140;7.076;2023-04-08T09:33:53;15.93;;;11.25;;
15112;SDS011;7657;50.140;7.076;2023-04-08T09:36:21;17.40;;;12.60;;
15112;SDS011;7657;50.140;7.076;2023-04-08T09:38:50;13.02;;;10.35;;
15112;SDS011;7657;50.140;7.076;2023-04-08T09:41:17;16.65;;;13.45;;
15112;SDS011;7657;50.140;7.076;2023-04-08T09:43:48;15.27;;;11.75;;
15112;SDS011;7657;50.140;7.076;2023-04-08T09:46:16;15.80;;;11.82;;
15112;SDS011;7657;50.140;7.076;2023-04-08T09:48:45;14.73;;;11.95;;
15112;SDS011;7657;50.140;7.076;2023-04-08T09:51:18;15.00;;;11.93;;
15112;SDS011;7657;50.140;7.076;2023-04-08T09:53:46;16.95;;;12.05;;
15112;SDS011;7657;50.140;7.076;2023-04-08T09:56:20;15.95;;;12.48;;
15112;SDS011;7657;50.140;7.076;2023-04-08T09:58:50;18.33;;;13.40;;
15112;SDS011;7657;50.140;7.076;2023-04-08T10:01:21;16.00;;;12.35;;
15112;SDS011;7657;50.140;7.076;2023-04-08T10:03:53;16.45;;;12.20;;
15112;SDS011;7657;50.140;7.076;2023-04-08T10:06:21;20.02;;;13.02;;
15112;SDS011;7657;50.140;7.076;2023-04-08T10:08:51;17.48;;;12.57;;
15112;SDS011;7657;50.140;7.076;2023-04-08T10:11:20;18.20;;;12.98;;
15112;SDS011;7657;50.140;7.076;2023-04-08T10:13:47;18.95;;;13.13;;
15112;SDS011;7657;50.140;7.076;2023-04-08T10:16:18;21.42;;;13.38;;
15112;SDS011;7657;50.140;7.076;2023-04-08T10:18:48;18.48;;;11.93;;
15112;SDS011;7657;50.140;7.076;2023-04-08T10:24:05;18.58;;;13.02;;
15112;SDS011;7657;50.140;7.076;2023-04-08T10:26:38;18.98;;;13.55;;
15112;SDS011;7657;50.140;7.076;2023-04-08T10:32:00;18.95;;;13.40;;
15112;SDS011;7657;50.140;7.076;2023-04-08T10:34:27;15.65;;;12.02;;
15112;SDS011;7657;50.140;7.076;2023-04-08T10:36:55;18.25;;;12.68;;
15112;SDS011;7657;50.140;7.076;2023-04-08T10:39:27;18.73;;;13.65;;
15112;SDS011;7657;50.140;7.076;2023-04-08T10:41:57;14.05;;;10.75;;
15112;SDS011;7657;50.140;7.076;2023-04-08T10:44:28;16.67;;;10.73;;
15112;SDS011;7657;50.140;7.076;2023-04-08T10:46:55;19.08;;;11.70;;
15112;SDS011;7657;50.140;7.076;2023-04-08T10:49:22;20.67;;;13.13;;
15112;SDS011;7657;50.140;7.076;2023-04-08T10:51:58;18.05;;;12.38;;
15112;SDS011;7657;50.140;7.076;2023-04-08T10:54:26;15.15;;;11.50;;
15112;SDS011;7657;50.140;7.076;2023-04-08T10:56:52;14.68;;;10.77;;
15112;SDS011;7657;50.140;7.076;2023-04-08T10:59:27;14.32;;;10.75;;
15112;SDS011;7657;50.140;7.076;2023-04-08T11:01:56;15.77;;;10.93;;
15112;SDS011;7657;50.140;7.076;2023-04-08T11:04:23;15.75;;;12.10;;
15112;SDS011;7657;50.140;7.076;2023-04-08T11:06:51;15.25;;;11.48;;
15112;SDS011;7657;50.140;7.076;2023-04-08T11:09:18;15.73;;;11.27;;
15112;SDS011;7657;50.140;7.076;2023-04-08T11:11:45;11.40;;;8.52;;
15112;SDS011;7657;50.140;7.076;2023-04-08T11:14:12;12.73;;;9.15;;
15112;SDS011;7657;50.140;7.076;2023-04-08T11:16:42;12.13;;;8.73;;
15112;SDS011;7657;50.140;7.076;2023-04-08T11:19:09;11.93;;;9.40;;
15112;SDS011;7657;50.140;7.076;2023-04-08T11:21:39;12.65;;;9.52;;
15112;SDS011;7657;50.140;7.076;2023-04-08T11:24:08;13.70;;;9.70;;
15112;SDS011;7657;50.140;7.076;2023-04-08T11:26:36;11.88;;;8.20;;
15112;SDS011;7657;50.140;7.076;2023-04-08T11:29:04;11.73;;;7.80;;
15112;SDS011;7657;50.140;7.076;2023-04-08T11:31:31;9.48;;;7.10;;
15112;SDS011;7657;50.140;7.076;2023-04-08T11:34:01;17.55;;;12.52;;
15112;SDS011;7657;50.140;7.076;2023-04-08T11:36:28;17.88;;;12.98;;
15112;SDS011;7657;50.140;7.076;2023-04-08T11:38:55;16.95;;;13.13;;
15112;SDS011;7657;50.140;7.076;2023-04-08T11:41:22;15.50;;;10.98;;
15112;SDS011;7657;50.140;7.076;2023-04-08T11:43:53;11.27;;;8.70;;
15112;SDS011;7657;50.140;7.076;2023-04-08T11:46:21;14.52;;;10.30;;
15112;SDS011;7657;50.140;7.076;2023-04-08T11:48:58;9.20;;;7.90;;
15112;SDS011;7657;50.140;7.076;2023-04-08T11:51:31;11.48;;;7.95;;
15112;SDS011;7657;50.140;7.076;2023-04-08T11:53:59;12.00;;;9.13;;
15112;SDS011;7657;50.140;7.076;2023-04-08T11:56:29;13.23;;;9.45;;
15112;SDS011;7657;50.140;7.076;2023-04-08T11:58:57;12.32;;;8.70;;
15112;SDS011;7657;50.140;7.076;2023-04-08T12:01:24;14.93;;;9.73;;
15112;SDS011;7657;50.140;7.076;2023-04-08T12:03:55;12.77;;;9.38;;
15112;SDS011;7657;50.140;7.076;2023-04-08T12:06:24;13.63;;;10.45;;
15112;SDS011;7657;50.140;7.076;2023-04-08T12:08:53;12.43;;;8.93;;
15112;SDS011;7657;50.140;7.076;2023-04-08T12:11:20;13.88;;;10.00;;
15112;SDS011;7657;50.140;7.076;2023-04-08T12:13:47;11.18;;;8.65;;
15112;SDS011;7657;50.140;7.076;2023-04-08T12:16:16;8.63;;;7.57;;
15112;SDS011;7657;50.140;7.076;2023-04-08T12:18:43;13.48;;;8.80;;
15112;SDS011;7657;50.140;7.076;2023-04-08T12:21:10;13.05;;;9.07;;
15112;SDS011;7657;50.140;7.076;2023-04-08T12:23:39;13.38;;;9.32;;
15112;SDS011;7657;50.140;7.076;2023-04-08T12:26:06;13.38;;;9.73;;
15112;SDS011;7657;50.140;7.076;2023-04-08T12:28:33;12.77;;;9.70;;
15112;SDS011;7657;50.140;7.076;2023-04-08T12:31:00;15.18;;;10.93;;
15112;SDS011;7657;50.140;7.076;2023-04-08T12:33:27;14.02;;;9.82;;
15112;SDS011;7657;50.140;7.076;2023-04-08T12:35:54;10.02;;;8.15;;
15112;SDS011;7657;50.140;7.076;2023-04-08T12:38:22;10.55;;;9.05;;
15112;SDS011;7657;50.140;7.076;2023-04-08T12:40:50;17.25;;;11.30;;
15112;SDS011;7657;50.140;7.076;2023-04-08T12:43:17;13.93;;;10.35;;
15112;SDS011;7657;50.140;7.076;2023-04-08T12:45:45;16.13;;;11.02;;
15112;SDS011;7657;50.140;7.076;2023-04-08T12:48:12;14.15;;;10.50;;
15112;SDS011;7657;50.140;7.076;2023-04-08T12:50:38;16.52;;;12.23;;
15112;SDS011;7657;50.140;7.076;2023-04-08T12:53:05;14.52;;;9.75;;
15112;SDS011;7657;50.140;7.076;2023-04-08T12:55:32;16.58;;;11.68;;
15112;SDS011;7657;50.140;7.076;2023-04-08T12:58:01;13.68;;;9.98;;
15112;SDS011;7657;50.140;7.076;2023-04-08T13:00:28;13.55;;;10.27;;
15112;SDS011;7657;50.140;7.076;2023-04-08T13:02:54;17.23;;;10.50;;
15112;SDS011;7657;50.140;7.076;2023-04-08T13:05:21;15.63;;;11.57;;
15112;SDS011;7657;50.140;7.076;2023-04-08T13:07:48;16.90;;;11.65;;
15112;SDS011;7657;50.140;7.076;2023-04-08T13:10:15;17.23;;;11.95;;
15112;SDS011;7657;50.140;7.076;2023-04-08T13:12:42;20.42;;;14.07;;
15112;SDS011;7657;50.140;7.076;2023-04-08T13:15:11;16.45;;;12.63;;
15112;SDS011;7657;50.140;7.076;2023-04-08T13:17:38;14.90;;;11.02;;
15112;SDS011;7657;50.140;7.076;2023-04-08T13:20:05;19.42;;;12.60;;
15112;SDS011;7657;50.140;7.076;2023-04-08T13:22:34;19.60;;;14.00;;
15112;SDS011;7657;50.140;7.076;2023-04-08T13:25:01;17.35;;;13.52;;
15112;SDS011;7657;50.140;7.076;2023-04-08T13:27:30;16.27;;;12.73;;
15112;SDS011;7657;50.140;7.076;2023-04-08T13:29:57;21.58;;;14.80;;
15112;SDS011;7657;50.140;7.076;2023-04-08T13:32:26;15.77;;;11.60;;
15112;SDS011;7657;50.140;7.076;2023-04-08T13:34:53;16.88;;;13.05;;
15112;SDS011;7657;50.140;7.076;2023-04-08T13:37:19;17.70;;;13.57;;
15112;SDS011;7657;50.140;7.076;2023-04-08T13:39:46;17.90;;;13.38;;
15112;SDS011;7657;50.140;7.076;2023-04-08T13:42:13;16.38;;;12.90;;
15112;SDS011;7657;50.140;7.076;2023-04-08T13:44:40;17.17;;;12.25;;
15112;SDS011;7657;50.140;7.076;2023-04-08T13:47:07;18.00;;;13.07;;
15112;SDS011;7657;50.140;7.076;2023-04-08T13:49:35;16.60;;;12.02;;
15112;SDS011;7657;50.140;7.076;2023-04-08T13:52:02;15.73;;;12.10;;
15112;SDS011;7657;50.140;7.076;2023-04-08T13:54:29;15.90;;;11.60;;
15112;SDS011;7657;50.140;7.076;2023-04-08T13:56:56;18.45;;;13.65;;
15112;SDS011;7657;50.140;7.076;2023-04-08T13:59:23;16.55;;;12.30;;
15112;SDS011;7657;50.140;7.076;2023-04-08T14:01:50;16.38;;;11.77;;
15112;SDS011;7657;50.140;7.076;2023-04-08T14:04:18;17.70;;;13.30;;
15112;SDS011;7657;50.140;7.076;2023-04-08T14:06:47;15.43;;;12.45;;
15112;SDS011;7657;50.140;7.076;2023-04-08T14:09:15;15.93;;;12.85;;
15112;SDS011;7657;50.140;7.076;2023-04-08T14:11:42;20.50;;;16.02;;
15112;SDS011;7657;50.140;7.076;2023-04-08T14:14:09;44.75;;;25.38;;
15112;SDS011;7657;50.140;7.076;2023-04-08T14:16:36;62.78;;;30.40;;
15112;SDS011;7657;50.140;7.076;2023-04-08T14:19:03;50.17;;;25.00;;
15112;SDS011;7657;50.140;7.076;2023-04-08T14:21:30;113.50;;;43.78;;
15112;SDS011;7657;50.140;7.076;2023-04-08T14:23:58;46.85;;;24.67;;
15112;SDS011;7657;50.140;7.076;2023-04-08T14:26:25;96.00;;;43.85;;
15112;SDS011;7657;50.140;7.076;2023-04-08T14:28:52;32.25;;;19.27;;
15112;SDS011;7657;50.140;7.076;2023-04-08T14:31:19;25.83;;;17.23;;
15112;SDS011;7657;50.140;7.076;2023-04-08T14:33:46;20.80;;;16.05;;
15112;SDS011;7657;50.140;7.076;2023-04-08T14:36:13;22.48;;;16.77;;
15112;SDS011;7657;50.140;7.076;2023-04-08T14:38:39;18.13;;;13.95;;
15112;SDS011;7657;50.140;7.076;2023-04-08T14:41:08;21.30;;;17.05;;
15112;SDS011;7657;50.140;7.076;2023-04-08T14:43:35;19.73;;;15.07;;
15112;SDS011;7657;50.140;7.076;2023-04-08T14:46:02;19.67;;;15.93;;
15112;SDS011;7657;50.140;7.076;2023-04-08T14:48:29;16.65;;;14.10;;
15112;SDS011;7657;50.140;7.076;2023-04-08T14:50:56;18.17;;;14.77;;
15112;SDS011;7657;50.140;7.076;2023-04-08T14:53:24;20.35;;;15.18;;